• Join FlightAware (Why Join?)
  • Login
  • US Flag 
09:09AM EDT


 

Airport Tracker/Info


-or-


 

Live Flight TrackerFlight Track Log ✈ SWA1044 ✈ 27-Apr-2013 ✈ KBDL - KBWI

Flight Track Log - Related Links

Times and Time Zones

All times are in EDT time to prevent confusion due to time zone crossing. See the SWA1044 flight status page for this flight to view local times or setup timezone preferences in your user account.

Time Position Orientation Groundspeed Altitude Reporting Facility
EDT Latitude Longitude Course Direction KTS MPH feet Rate Location/Type
06:09PM 41.9956 -72.7947 304° West 206 237 4,000  Level Boston Center
06:10PM 41.9744 -72.8897 253° West 217 250 4,400 2,640 Climbing Boston Center
06:12PM 41.9419 -73.1044 259° West 288 331 12,000 3,660 Climbing Boston Center
06:13PM 41.9247 -73.2158 258° West 329 379 15,400 3,240 Climbing Boston Center
06:14PM 41.8819 -73.3519 247° West 356 410 18,500 2,520 Climbing Boston Center
06:15PM 41.8289 -73.4653 238° Southwest 375 432 20,500 2,520 Climbing Boston Center
06:16PM 41.7361 -73.5639 218° Southwest 404 465 23,600 2,400 Climbing Boston Center
06:17PM 41.5644 -73.7128 213° Southwest 429 494 26,900 2,040 Climbing New York Center
06:18PM 41.4578 -73.8133 215° Southwest 450 518 29,000 1,500 Climbing New York Center
06:19PM 41.3489 -73.9078 213° Southwest 467 537 30,000 420 Climbing New York Center
06:20PM 41.2403 -74.0050 214° Southwest 478 550 29,900  Descending New York Center
06:21PM 41.1333 -74.1017 214° Southwest 478 550 30,000 -480 Climbing New York Center
06:22PM 41.0308 -74.1928 214° Southwest 466 536 29,000 -1,020 Descending New York Center
06:23PM 40.9219 -74.2833 212° Southwest 473 544 28,000 -540 Descending New York Center
06:24PM 40.8169 -74.3739 213° Southwest 468 539 28,000  Level New York Center
06:25PM 40.7322 -74.4900 226° Southwest 455 524 28,000  Level New York Center
06:26PM 40.6572 -74.6228 233° Southwest 446 513 28,000  Level New York Center
06:27PM 40.5758 -74.7492 230° Southwest 451 519 28,000  Level New York Center
06:28PM 40.4903 -74.8753 228° Southwest 462 532 28,000 -60 Level New York Center
06:29PM 40.4092 -74.9878 227° Southwest 472 543 27,900 -1,080 Descending New York Center
06:30PM 40.3258 -75.1050 227° Southwest 467 537 25,900 -2,460 Descending New York Center
06:31PM 40.2486 -75.2172 228° Southwest 447 514 23,100 -2,820 Descending New York Center
06:32PM 40.1692 -75.3289 227° Southwest 435 501 20,400 -2,580 Descending New York Center
06:33PM 40.0769 -75.4478 225° Southwest 424 488 18,000 -1,260 Descending New York Center
06:34PM 40.0042 -75.5511 227° Southwest 411 473 18,000  Level New York Center
06:35PM 39.9333 -75.6492 227° Southwest 411 473 18,000  Level New York Center
06:36PM 39.8633 -75.7769 235° Southwest 411 473 18,000 -1,680 Level New York Center
06:39PM 39.7167 -76.0500 235° Southwest 356 410 12,500 -1,800 Descending Potomac TRACON
06:40PM 39.6667 -76.1500 237° Southwest 309 356 12,000 -360 Descending Potomac TRACON
06:41PM 39.6167 -76.2333 232° Southwest 305 351 11,800 -900 Descending Potomac TRACON
06:42PM 39.5833 -76.3167 243° Southwest 285 328 10,200 -1,740 Descending Potomac TRACON
06:42PM 39.5333 -76.3833 226° Southwest 283 326 8,500 -1,140 Descending Potomac TRACON
06:44PM 39.4833 -76.5000 241° Southwest 296 341 8,000 -420 Descending Potomac TRACON
06:45PM 39.4500 -76.5833 243° Southwest 292 336 7,700 -1,020 Descending Potomac TRACON
06:46PM 39.4000 -76.6667 232° Southwest 287 330 6,000 -1,560 Descending Potomac TRACON
06:47PM 39.3333 -76.7167 210° Southwest 265 305 4,600 -1,260 Descending Potomac TRACON
06:48PM 39.2667 -76.7667 210° Southwest 246 283 3,400 -720 Descending Potomac TRACON
06:49PM 39.2167 -76.8000 207° Southwest 181 208 3,200 -900 Descending Potomac TRACON
06:50PM 39.1833 -76.7833 159° South 153 176 1,700 -1,260 Descending Potomac TRACON
06:51PM 39.1833 -76.7333 90° East 132 152 900 -900 Descending Potomac TRACON
06:53PM 39.1667 -76.6667 270° West  Level FlightAware Approximate
07:00PM 39.1754 -76.6683 270° West  Level Estimated
07:01PM 39.1754 -76.6683 270° West  Level Estimated
07:02PM 39.1754 -76.6683 270° West  Level Estimated